KSBN/SBN METAR and TAF weather

Enter ICAO airport designator
Station Type Date Time Source
KSBN METAR 2019/07/17 13:27 UTC NOAA

KSBN 171327Z 36006KT 10SM FEW009 SCT075 25/23 A2992 RMK AO2 T02500228


Station Type Date Time Source
KSBN Decoded METAR 2019/07/17 13:27 UTC NOAA

SOUTH BEND REGIONAL AIRPORT, IN, United States (KSBN) 41-42N 086-19W 237M
Jul 17, 2019 - 09:27 AM EDT / 2019.07.17 1327 UTC
Wind: from the N (360 degrees) at 7 MPH (6 KT):0
Visibility: 10 mile(s):0
Sky conditions: partly cloudy
Temperature: 77.0 F (25.0 C)
Dew Point: 73.0 F (22.8 C)
Relative Humidity: 87%
Pressure (altimeter): 29.92 in. Hg (1013 hPa)
ob: KSBN 171327Z 36006KT 10SM FEW009 SCT075 25/23 A2992 RMK AO2 T02500228
cycle: 13

Station Type Date Time Source
KSBN TAF 2019/07/17 13:15 UTC NOAA

TAF
AMD KSBN 171313Z 1713/1812 36005KT 6SM BR BKN007 OVC015
FM171430 35005KT P6SM BKN015
FM171600 33007KT P6SM SCT035
FM181000 17005KT P6SM SCT180

Example: see airport list